sensor_id;sensor_type;location;lat;lon;timestamp;P1;durP1;ratioP1;P2;durP2;ratioP2
78916;SDS011;68315;48.608;11.436;2023-07-16T00:00:56;6.68;;;4.07;;
78916;SDS011;68315;48.608;11.436;2023-07-16T00:03:22;5.13;;;3.50;;
78916;SDS011;68315;48.608;11.436;2023-07-16T00:05:49;5.03;;;3.35;;
78916;SDS011;68315;48.608;11.436;2023-07-16T00:08:16;3.30;;;3.00;;
78916;SDS011;68315;48.608;11.436;2023-07-16T00:10:41;4.03;;;3.40;;
78916;SDS011;68315;48.608;11.436;2023-07-16T00:13:06;3.97;;;3.30;;
78916;SDS011;68315;48.608;11.436;2023-07-16T00:15:31;3.88;;;3.40;;
78916;SDS011;68315;48.608;11.436;2023-07-16T00:17:57;5.28;;;3.85;;
78916;SDS011;68315;48.608;11.436;2023-07-16T00:20:22;5.07;;;3.70;;
78916;SDS011;68315;48.608;11.436;2023-07-16T00:22:49;4.13;;;3.65;;
78916;SDS011;68315;48.608;11.436;2023-07-16T00:25:14;5.13;;;4.03;;
78916;SDS011;68315;48.608;11.436;2023-07-16T00:27:40;4.22;;;3.83;;
78916;SDS011;68315;48.608;11.436;2023-07-16T00:30:05;6.93;;;3.90;;
78916;SDS011;68315;48.608;11.436;2023-07-16T00:32:31;9.20;;;4.15;;
78916;SDS011;68315;48.608;11.436;2023-07-16T00:34:56;4.35;;;3.65;;
78916;SDS011;68315;48.608;11.436;2023-07-16T00:37:21;4.05;;;3.65;;
78916;SDS011;68315;48.608;11.436;2023-07-16T00:39:47;5.13;;;4.17;;
78916;SDS011;68315;48.608;11.436;2023-07-16T00:42:12;5.65;;;3.83;;
78916;SDS011;68315;48.608;11.436;2023-07-16T00:44:37;4.60;;;4.15;;
78916;SDS011;68315;48.608;11.436;2023-07-16T00:47:03;5.95;;;4.05;;
78916;SDS011;68315;48.608;11.436;2023-07-16T00:49:28;6.40;;;4.32;;
78916;SDS011;68315;48.608;11.436;2023-07-16T00:51:54;5.88;;;4.53;;
78916;SDS011;68315;48.608;11.436;2023-07-16T00:54:19;8.05;;;4.80;;
78916;SDS011;68315;48.608;11.436;2023-07-16T00:56:45;5.15;;;4.40;;
78916;SDS011;68315;48.608;11.436;2023-07-16T00:59:10;6.88;;;4.90;;
78916;SDS011;68315;48.608;11.436;2023-07-16T01:01:36;7.53;;;4.40;;
78916;SDS011;68315;48.608;11.436;2023-07-16T01:04:03;3.92;;;3.60;;
78916;SDS011;68315;48.608;11.436;2023-07-16T01:06:33;4.72;;;4.22;;
78916;SDS011;68315;48.608;11.436;2023-07-16T01:09:02;5.68;;;4.90;;
78916;SDS011;68315;48.608;11.436;2023-07-16T01:11:31;5.03;;;4.53;;
78916;SDS011;68315;48.608;11.436;2023-07-16T01:14:00;6.80;;;5.75;;
78916;SDS011;68315;48.608;11.436;2023-07-16T01:16:27;6.22;;;5.22;;
78916;SDS011;68315;48.608;11.436;2023-07-16T01:18:52;7.80;;;5.05;;
78916;SDS011;68315;48.608;11.436;2023-07-16T01:21:21;6.20;;;5.20;;
78916;SDS011;68315;48.608;11.436;2023-07-16T01:31:51;5.05;;;4.18;;
78916;SDS011;68315;48.608;11.436;2023-07-16T01:34:19;8.65;;;6.28;;
78916;SDS011;68315;48.608;11.436;2023-07-16T01:36:45;11.75;;;5.82;;
78916;SDS011;68315;48.608;11.436;2023-07-16T01:39:11;7.22;;;4.97;;
78916;SDS011;68315;48.608;11.436;2023-07-16T01:41:36;5.38;;;4.88;;
78916;SDS011;68315;48.608;11.436;2023-07-16T01:44:02;10.95;;;5.75;;
78916;SDS011;68315;48.608;11.436;2023-07-16T01:46:27;7.20;;;5.63;;
78916;SDS011;68315;48.608;11.436;2023-07-16T01:48:54;6.88;;;5.22;;
78916;SDS011;68315;48.608;11.436;2023-07-16T01:51:19;7.22;;;5.32;;
78916;SDS011;68315;48.608;11.436;2023-07-16T01:53:45;6.30;;;4.30;;
78916;SDS011;68315;48.608;11.436;2023-07-16T01:56:10;6.53;;;4.45;;
78916;SDS011;68315;48.608;11.436;2023-07-16T01:58:35;5.53;;;4.83;;
78916;SDS011;68315;48.608;11.436;2023-07-16T02:01:00;5.40;;;4.90;;
78916;SDS011;68315;48.608;11.436;2023-07-16T02:03:26;7.30;;;5.07;;
78916;SDS011;68315;48.608;11.436;2023-07-16T02:05:51;6.28;;;4.95;;
78916;SDS011;68315;48.608;11.436;2023-07-16T02:08:17;7.13;;;5.18;;
78916;SDS011;68315;48.608;11.436;2023-07-16T02:10:43;10.88;;;5.65;;
78916;SDS011;68315;48.608;11.436;2023-07-16T02:13:08;5.13;;;4.63;;
78916;SDS011;68315;48.608;11.436;2023-07-16T02:15:33;6.65;;;4.65;;
78916;SDS011;68315;48.608;11.436;2023-07-16T02:17:58;5.07;;;4.57;;
78916;SDS011;68315;48.608;11.436;2023-07-16T02:20:24;5.97;;;4.68;;
78916;SDS011;68315;48.608;11.436;2023-07-16T02:22:49;7.38;;;5.00;;
78916;SDS011;68315;48.608;11.436;2023-07-16T02:25:14;4.90;;;4.50;;
78916;SDS011;68315;48.608;11.436;2023-07-16T02:27:40;4.95;;;4.45;;
78916;SDS011;68315;48.608;11.436;2023-07-16T02:30:05;5.95;;;5.35;;
78916;SDS011;68315;48.608;11.436;2023-07-16T02:32:31;7.28;;;4.85;;
78916;SDS011;68315;48.608;11.436;2023-07-16T02:34:57;5.75;;;4.65;;
78916;SDS011;68315;48.608;11.436;2023-07-16T02:37:22;6.30;;;4.80;;
78916;SDS011;68315;48.608;11.436;2023-07-16T02:39:47;6.37;;;4.50;;
78916;SDS011;68315;48.608;11.436;2023-07-16T02:42:13;4.53;;;4.13;;
78916;SDS011;68315;48.608;11.436;2023-07-16T02:44:38;4.78;;;3.70;;
78916;SDS011;68315;48.608;11.436;2023-07-16T02:47:08;4.38;;;3.65;;
78916;SDS011;68315;48.608;11.436;2023-07-16T02:49:33;3.30;;;3.00;;
78916;SDS011;68315;48.608;11.436;2023-07-16T02:51:58;3.67;;;3.27;;
78916;SDS011;68315;48.608;11.436;2023-07-16T02:54:24;5.47;;;3.45;;
78916;SDS011;68315;48.608;11.436;2023-07-16T02:56:49;4.50;;;3.53;;
78916;SDS011;68315;48.608;11.436;2023-07-16T02:59:14;5.18;;;3.63;;
78916;SDS011;68315;48.608;11.436;2023-07-16T03:01:39;4.07;;;3.05;;
78916;SDS011;68315;48.608;11.436;2023-07-16T03:04:05;4.97;;;3.43;;
78916;SDS011;68315;48.608;11.436;2023-07-16T03:06:30;3.03;;;2.73;;
78916;SDS011;68315;48.608;11.436;2023-07-16T03:08:55;2.67;;;2.47;;
78916;SDS011;68315;48.608;11.436;2023-07-16T03:11:21;3.97;;;2.60;;
78916;SDS011;68315;48.608;11.436;2023-07-16T03:13:46;3.15;;;2.53;;
78916;SDS011;68315;48.608;11.436;2023-07-16T03:16:11;3.20;;;2.90;;
78916;SDS011;68315;48.608;11.436;2023-07-16T03:18:37;3.83;;;2.80;;
78916;SDS011;68315;48.608;11.436;2023-07-16T03:21:02;2.60;;;2.40;;
78916;SDS011;68315;48.608;11.436;2023-07-16T03:23:27;2.60;;;2.40;;
78916;SDS011;68315;48.608;11.436;2023-07-16T03:25:53;3.60;;;2.10;;
78916;SDS011;68315;48.608;11.436;2023-07-16T03:28:18;2.50;;;2.30;;
78916;SDS011;68315;48.608;11.436;2023-07-16T03:30:50;2.85;;;2.60;;
78916;SDS011;68315;48.608;11.436;2023-07-16T03:33:16;3.33;;;2.85;;
78916;SDS011;68315;48.608;11.436;2023-07-16T03:35:45;2.60;;;2.38;;
78916;SDS011;68315;48.608;11.436;2023-07-16T03:38:11;4.28;;;3.17;;
78916;SDS011;68315;48.608;11.436;2023-07-16T03:40:37;6.00;;;2.88;;
78916;SDS011;68315;48.608;11.436;2023-07-16T03:43:03;3.92;;;2.90;;
78916;SDS011;68315;48.608;11.436;2023-07-16T03:45:28;2.65;;;2.30;;
78916;SDS011;68315;48.608;11.436;2023-07-16T03:47:53;2.75;;;2.55;;
78916;SDS011;68315;48.608;11.436;2023-07-16T03:50:19;4.78;;;2.78;;
78916;SDS011;68315;48.608;11.436;2023-07-16T03:52:44;2.53;;;2.25;;
78916;SDS011;68315;48.608;11.436;2023-07-16T03:55:10;2.47;;;2.00;;
78916;SDS011;68315;48.608;11.436;2023-07-16T03:57:35;2.38;;;2.17;;
78916;SDS011;68315;48.608;11.436;2023-07-16T04:00:01;2.38;;;1.92;;
78916;SDS011;68315;48.608;11.436;2023-07-16T04:02:29;3.17;;;2.15;;
78916;SDS011;68315;48.608;11.436;2023-07-16T04:04:54;2.73;;;2.30;;
78916;SDS011;68315;48.608;11.436;2023-07-16T04:07:19;2.97;;;2.20;;
78916;SDS011;68315;48.608;11.436;2023-07-16T04:09:44;2.53;;;2.27;;
78916;SDS011;68315;48.608;11.436;2023-07-16T04:12:10;3.65;;;2.55;;
78916;SDS011;68315;48.608;11.436;2023-07-16T04:14:35;2.92;;;2.15;;
78916;SDS011;68315;48.608;11.436;2023-07-16T04:17:00;3.55;;;2.05;;
78916;SDS011;68315;48.608;11.436;2023-07-16T04:19:26;3.20;;;2.40;;
78916;SDS011;68315;48.608;11.436;2023-07-16T04:21:51;2.90;;;2.40;;
78916;SDS011;68315;48.608;11.436;2023-07-16T04:24:16;2.33;;;2.10;;
78916;SDS011;68315;48.608;11.436;2023-07-16T04:26:41;3.33;;;2.80;;
78916;SDS011;68315;48.608;11.436;2023-07-16T04:29:07;3.63;;;2.72;;
78916;SDS011;68315;48.608;11.436;2023-07-16T04:31:32;3.83;;;2.40;;
78916;SDS011;68315;48.608;11.436;2023-07-16T04:33:57;2.35;;;2.15;;
78916;SDS011;68315;48.608;11.436;2023-07-16T04:36:22;3.17;;;2.40;;
78916;SDS011;68315;48.608;11.436;2023-07-16T04:38:48;2.50;;;2.30;;
78916;SDS011;68315;48.608;11.436;2023-07-16T04:41:13;2.50;;;2.20;;
78916;SDS011;68315;48.608;11.436;2023-07-16T04:43:39;2.65;;;1.90;;
78916;SDS011;68315;48.608;11.436;2023-07-16T04:46:04;2.17;;;1.90;;
78916;SDS011;68315;48.608;11.436;2023-07-16T04:48:29;3.95;;;1.80;;
78916;SDS011;68315;48.608;11.436;2023-07-16T04:50:55;1.90;;;1.52;;
78916;SDS011;68315;48.608;11.436;2023-07-16T04:53:20;2.20;;;1.50;;
78916;SDS011;68315;48.608;11.436;2023-07-16T04:55:47;2.80;;;1.83;;
78916;SDS011;68315;48.608;11.436;2023-07-16T04:58:12;2.10;;;1.60;;
78916;SDS011;68315;48.608;11.436;2023-07-16T05:00:37;2.70;;;1.80;;
78916;SDS011;68315;48.608;11.436;2023-07-16T05:03:03;1.88;;;1.65;;
78916;SDS011;68315;48.608;11.436;2023-07-16T05:05:28;1.98;;;1.75;;
78916;SDS011;68315;48.608;11.436;2023-07-16T05:07:53;1.88;;;1.67;;
78916;SDS011;68315;48.608;11.436;2023-07-16T05:10:19;3.13;;;1.80;;
78916;SDS011;68315;48.608;11.436;2023-07-16T05:12:44;2.30;;;1.83;;
78916;SDS011;68315;48.608;11.436;2023-07-16T05:15:09;3.10;;;2.10;;
78916;SDS011;68315;48.608;11.436;2023-07-16T05:17:35;2.85;;;2.00;;
78916;SDS011;68315;48.608;11.436;2023-07-16T05:20:00;2.00;;;1.80;;
78916;SDS011;68315;48.608;11.436;2023-07-16T05:22:25;2.00;;;1.80;;
78916;SDS011;68315;48.608;11.436;2023-07-16T05:24:51;2.28;;;1.90;;
78916;SDS011;68315;48.608;11.436;2023-07-16T05:27:16;2.17;;;1.98;;
78916;SDS011;68315;48.608;11.436;2023-07-16T05:29:41;2.20;;;2.00;;
78916;SDS011;68315;48.608;11.436;2023-07-16T05:32:07;2.35;;;1.95;;
78916;SDS011;68315;48.608;11.436;2023-07-16T05:34:33;3.75;;;2.10;;
78916;SDS011;68315;48.608;11.436;2023-07-16T05:36:58;2.45;;;2.20;;
78916;SDS011;68315;48.608;11.436;2023-07-16T05:39:24;2.65;;;2.45;;
78916;SDS011;68315;48.608;11.436;2023-07-16T05:41:49;3.35;;;2.08;;
78916;SDS011;68315;48.608;11.436;2023-07-16T05:44:14;2.85;;;2.25;;
78916;SDS011;68315;48.608;11.436;2023-07-16T05:46:40;3.60;;;2.08;;
78916;SDS011;68315;48.608;11.436;2023-07-16T05:49:05;2.40;;;2.08;;
78916;SDS011;68315;48.608;11.436;2023-07-16T05:51:30;2.30;;;1.67;;
78916;SDS011;68315;48.608;11.436;2023-07-16T05:53:56;2.85;;;2.10;;
78916;SDS011;68315;48.608;11.436;2023-07-16T05:56:21;2.05;;;1.85;;
78916;SDS011;68315;48.608;11.436;2023-07-16T05:58:47;3.13;;;2.00;;
78916;SDS011;68315;48.608;11.436;2023-07-16T06:01:12;2.15;;;1.50;;
78916;SDS011;68315;48.608;11.436;2023-07-16T06:03:37;3.75;;;2.45;;
78916;SDS011;68315;48.608;11.436;2023-07-16T06:06:03;2.25;;;2.00;;
78916;SDS011;68315;48.608;11.436;2023-07-16T06:08:28;1.95;;;1.70;;
78916;SDS011;68315;48.608;11.436;2023-07-16T06:10:53;4.80;;;1.77;;
78916;SDS011;68315;48.608;11.436;2023-07-16T06:13:19;2.03;;;1.60;;
78916;SDS011;68315;48.608;11.436;2023-07-16T06:15:45;2.58;;;1.80;;
78916;SDS011;68315;48.608;11.436;2023-07-16T06:18:11;1.77;;;1.60;;
78916;SDS011;68315;48.608;11.436;2023-07-16T06:20:37;1.77;;;1.67;;
78916;SDS011;68315;48.608;11.436;2023-07-16T06:23:02;2.00;;;1.77;;
78916;SDS011;68315;48.608;11.436;2023-07-16T06:25:27;2.50;;;2.30;;
78916;SDS011;68315;48.608;11.436;2023-07-16T06:27:53;2.20;;;2.00;;
78916;SDS011;68315;48.608;11.436;2023-07-16T06:30:18;2.00;;;1.80;;
78916;SDS011;68315;48.608;11.436;2023-07-16T06:32:44;2.35;;;1.83;;
78916;SDS011;68315;48.608;11.436;2023-07-16T06:35:09;3.75;;;1.75;;
78916;SDS011;68315;48.608;11.436;2023-07-16T06:37:35;3.00;;;2.13;;
78916;SDS011;68315;48.608;11.436;2023-07-16T06:40:00;2.22;;;2.00;;
78916;SDS011;68315;48.608;11.436;2023-07-16T06:42:25;2.83;;;2.47;;
78916;SDS011;68315;48.608;11.436;2023-07-16T06:44:51;2.10;;;1.90;;
78916;SDS011;68315;48.608;11.436;2023-07-16T06:47:16;3.13;;;2.20;;
78916;SDS011;68315;48.608;11.436;2023-07-16T06:49:41;2.95;;;2.67;;
78916;SDS011;68315;48.608;11.436;2023-07-16T06:52:07;2.03;;;1.85;;
78916;SDS011;68315;48.608;11.436;2023-07-16T06:54:33;3.47;;;2.15;;
78916;SDS011;68315;48.608;11.436;2023-07-16T06:56:58;2.10;;;1.90;;
78916;SDS011;68315;48.608;11.436;2023-07-16T06:59:24;2.60;;;2.40;;
78916;SDS011;68315;48.608;11.436;2023-07-16T07:01:49;3.20;;;2.30;;
78916;SDS011;68315;48.608;11.436;2023-07-16T07:04:14;2.95;;;2.50;;
78916;SDS011;68315;48.608;11.436;2023-07-16T07:06:39;3.47;;;2.28;;
78916;SDS011;68315;48.608;11.436;2023-07-16T07:09:05;4.45;;;2.70;;
78916;SDS011;68315;48.608;11.436;2023-07-16T07:11:31;4.15;;;2.58;;
78916;SDS011;68315;48.608;11.436;2023-07-16T07:13:56;3.70;;;2.30;;
78916;SDS011;68315;48.608;11.436;2023-07-16T07:16:22;2.92;;;2.50;;
78916;SDS011;68315;48.608;11.436;2023-07-16T07:18:48;3.83;;;2.58;;
78916;SDS011;68315;48.608;11.436;2023-07-16T07:21:13;4.30;;;2.42;;
78916;SDS011;68315;48.608;11.436;2023-07-16T07:23:38;2.33;;;2.08;;
78916;SDS011;68315;48.608;11.436;2023-07-16T07:26:05;2.53;;;2.33;;
78916;SDS011;68315;48.608;11.436;2023-07-16T07:28:30;2.90;;;2.10;;
78916;SDS011;68315;48.608;11.436;2023-07-16T07:30:55;4.57;;;2.60;;
78916;SDS011;68315;48.608;11.436;2023-07-16T07:33:20;3.03;;;2.65;;
78916;SDS011;68315;48.608;11.436;2023-07-16T07:35:46;3.45;;;2.40;;
78916;SDS011;68315;48.608;11.436;2023-07-16T07:38:11;4.40;;;2.33;;
78916;SDS011;68315;48.608;11.436;2023-07-16T07:40:36;3.03;;;2.28;;
78916;SDS011;68315;48.608;11.436;2023-07-16T07:43:01;4.30;;;2.90;;
78916;SDS011;68315;48.608;11.436;2023-07-16T07:45:27;4.22;;;2.55;;
78916;SDS011;68315;48.608;11.436;2023-07-16T07:47:52;3.72;;;2.15;;
78916;SDS011;68315;48.608;11.436;2023-07-16T07:50:17;2.67;;;2.00;;
78916;SDS011;68315;48.608;11.436;2023-07-16T07:52:43;2.03;;;1.50;;
78916;SDS011;68315;48.608;11.436;2023-07-16T07:55:08;1.73;;;1.35;;
78916;SDS011;68315;48.608;11.436;2023-07-16T07:57:33;1.88;;;1.35;;
78916;SDS011;68315;48.608;11.436;2023-07-16T07:59:59;2.90;;;1.58;;
78916;SDS011;68315;48.608;11.436;2023-07-16T08:02:24;1.67;;;1.45;;
78916;SDS011;68315;48.608;11.436;2023-07-16T08:04:51;1.80;;;1.60;;
78916;SDS011;68315;48.608;11.436;2023-07-16T08:07:17;1.90;;;1.42;;
78916;SDS011;68315;48.608;11.436;2023-07-16T08:09:42;1.88;;;1.70;;
78916;SDS011;68315;48.608;11.436;2023-07-16T08:12:08;2.72;;;1.67;;
78916;SDS011;68315;48.608;11.436;2023-07-16T08:14:33;1.45;;;1.35;;
78916;SDS011;68315;48.608;11.436;2023-07-16T08:16:58;1.67;;;1.40;;
78916;SDS011;68315;48.608;11.436;2023-07-16T08:19:24;2.03;;;1.50;;
78916;SDS011;68315;48.608;11.436;2023-07-16T08:21:49;1.40;;;1.30;;
78916;SDS011;68315;48.608;11.436;2023-07-16T08:24:14;2.50;;;1.93;;
78916;SDS011;68315;48.608;11.436;2023-07-16T08:26:40;2.72;;;1.63;;
78916;SDS011;68315;48.608;11.436;2023-07-16T08:29:05;1.98;;;1.77;;
78916;SDS011;68315;48.608;11.436;2023-07-16T08:31:30;1.83;;;1.58;;
78916;SDS011;68315;48.608;11.436;2023-07-16T08:33:56;2.42;;;2.00;;
78916;SDS011;68315;48.608;11.436;2023-07-16T08:36:21;2.05;;;1.63;;
78916;SDS011;68315;48.608;11.436;2023-07-16T08:38:46;2.75;;;1.77;;
78916;SDS011;68315;48.608;11.436;2023-07-16T08:41:12;3.15;;;1.73;;
78916;SDS011;68315;48.608;11.436;2023-07-16T08:43:37;2.30;;;1.58;;
78916;SDS011;68315;48.608;11.436;2023-07-16T08:46:04;2.28;;;2.03;;
78916;SDS011;68315;48.608;11.436;2023-07-16T08:48:30;1.98;;;1.80;;
78916;SDS011;68315;48.608;11.436;2023-07-16T08:50:57;2.40;;;1.65;;
78916;SDS011;68315;48.608;11.436;2023-07-16T08:53:23;2.17;;;1.98;;
78916;SDS011;68315;48.608;11.436;2023-07-16T08:55:49;2.25;;;1.70;;
78916;SDS011;68315;48.608;11.436;2023-07-16T08:58:14;1.90;;;1.70;;
78916;SDS011;68315;48.608;11.436;2023-07-16T09:00:43;2.90;;;2.40;;
78916;SDS011;68315;48.608;11.436;2023-07-16T09:03:13;2.33;;;1.95;;
78916;SDS011;68315;48.608;11.436;2023-07-16T09:05:41;2.35;;;2.08;;
78916;SDS011;68315;48.608;11.436;2023-07-16T09:08:07;3.65;;;2.30;;
78916;SDS011;68315;48.608;11.436;2023-07-16T09:10:32;2.40;;;2.05;;
78916;SDS011;68315;48.608;11.436;2023-07-16T09:12:58;2.20;;;1.60;;
78916;SDS011;68315;48.608;11.436;2023-07-16T09:15:24;3.35;;;2.30;;
78916;SDS011;68315;48.608;11.436;2023-07-16T09:17:49;1.65;;;1.55;;
78916;SDS011;68315;48.608;11.436;2023-07-16T09:20:16;2.28;;;1.90;;
78916;SDS011;68315;48.608;11.436;2023-07-16T09:22:42;2.10;;;1.70;;
78916;SDS011;68315;48.608;11.436;2023-07-16T09:25:07;1.77;;;1.67;;
78916;SDS011;68315;48.608;11.436;2023-07-16T09:27:33;2.63;;;2.15;;
78916;SDS011;68315;48.608;11.436;2023-07-16T09:29:58;1.75;;;1.60;;
78916;SDS011;68315;48.608;11.436;2023-07-16T09:32:39;1.77;;;1.63;;
78916;SDS011;68315;48.608;11.436;2023-07-16T09:35:11;2.00;;;1.70;;
78916;SDS011;68315;48.608;11.436;2023-07-16T09:37:42;1.92;;;1.75;;
78916;SDS011;68315;48.608;11.436;2023-07-16T09:40:09;2.33;;;1.83;;
78916;SDS011;68315;48.608;11.436;2023-07-16T09:42:39;2.30;;;2.05;;
78916;SDS011;68315;48.608;11.436;2023-07-16T09:45:06;1.80;;;1.70;;
78916;SDS011;68315;48.608;11.436;2023-07-16T09:47:38;3.15;;;2.00;;
78916;SDS011;68315;48.608;11.436;2023-07-16T09:50:04;2.70;;;1.63;;
78916;SDS011;68315;48.608;11.436;2023-07-16T09:52:30;3.50;;;2.30;;
78916;SDS011;68315;48.608;11.436;2023-07-16T09:54:57;1.65;;;1.40;;
78916;SDS011;68315;48.608;11.436;2023-07-16T09:57:25;4.13;;;2.83;;
78916;SDS011;68315;48.608;11.436;2023-07-16T09:59:52;4.05;;;2.22;;
78916;SDS011;68315;48.608;11.436;2023-07-16T10:02:20;1.63;;;1.52;;
78916;SDS011;68315;48.608;11.436;2023-07-16T10:04:46;2.42;;;1.48;;
78916;SDS011;68315;48.608;11.436;2023-07-16T10:07:21;1.77;;;1.45;;
78916;SDS011;68315;48.608;11.436;2023-07-16T10:12:22;1.80;;;1.38;;
78916;SDS011;68315;48.608;11.436;2023-07-16T10:14:53;1.70;;;1.60;;
78916;SDS011;68315;48.608;11.436;2023-07-16T10:17:22;2.15;;;1.50;;
78916;SDS011;68315;48.608;11.436;2023-07-16T10:22:36;2.10;;;1.55;;
78916;SDS011;68315;48.608;11.436;2023-07-16T10:25:10;1.60;;;1.50;;
78916;SDS011;68315;48.608;11.436;2023-07-16T10:27:45;2.00;;;1.80;;
78916;SDS011;68315;48.608;11.436;2023-07-16T10:30:11;4.22;;;1.88;;
78916;SDS011;68315;48.608;11.436;2023-07-16T10:32:37;3.65;;;2.10;;
78916;SDS011;68315;48.608;11.436;2023-07-16T10:35:03;2.08;;;1.67;;
78916;SDS011;68315;48.608;11.436;2023-07-16T10:37:30;2.78;;;2.03;;
78916;SDS011;68315;48.608;11.436;2023-07-16T10:39:56;2.65;;;1.73;;
78916;SDS011;68315;48.608;11.436;2023-07-16T10:42:23;2.65;;;1.40;;
78916;SDS011;68315;48.608;11.436;2023-07-16T10:44:50;3.05;;;2.00;;
78916;SDS011;68315;48.608;11.436;2023-07-16T10:47:20;2.72;;;1.85;;
78916;SDS011;68315;48.608;11.436;2023-07-16T10:49:47;2.65;;;1.40;;
78916;SDS011;68315;48.608;11.436;2023-07-16T10:52:12;1.75;;;1.65;;
78916;SDS011;68315;48.608;11.436;2023-07-16T10:54:39;1.95;;;1.75;;
78916;SDS011;68315;48.608;11.436;2023-07-16T10:57:05;1.75;;;1.60;;
78916;SDS011;68315;48.608;11.436;2023-07-16T10:59:30;2.53;;;1.85;;
78916;SDS011;68315;48.608;11.436;2023-07-16T11:01:56;2.50;;;1.73;;
78916;SDS011;68315;48.608;11.436;2023-07-16T11:04:21;2.88;;;1.77;;
78916;SDS011;68315;48.608;11.436;2023-07-16T11:06:46;3.07;;;2.00;;
78916;SDS011;68315;48.608;11.436;2023-07-16T11:09:15;2.72;;;2.13;;
78916;SDS011;68315;48.608;11.436;2023-07-16T11:11:40;2.10;;;1.70;;
78916;SDS011;68315;48.608;11.436;2023-07-16T11:14:06;3.00;;;1.88;;
78916;SDS011;68315;48.608;11.436;2023-07-16T11:16:36;2.90;;;1.60;;
78916;SDS011;68315;48.608;11.436;2023-07-16T11:19:03;2.03;;;1.40;;
78916;SDS011;68315;48.608;11.436;2023-07-16T11:21:30;2.88;;;1.70;;
78916;SDS011;68315;48.608;11.436;2023-07-16T11:23:55;1.73;;;1.63;;
78916;SDS011;68315;48.608;11.436;2023-07-16T11:26:21;1.70;;;1.55;;
78916;SDS011;68315;48.608;11.436;2023-07-16T11:28:49;3.35;;;2.20;;
78916;SDS011;68315;48.608;11.436;2023-07-16T11:31:16;3.08;;;2.13;;
78916;SDS011;68315;48.608;11.436;2023-07-16T11:33:42;3.05;;;2.17;;
78916;SDS011;68315;48.608;11.436;2023-07-16T11:36:08;2.38;;;1.73;;
78916;SDS011;68315;48.608;11.436;2023-07-16T11:38:37;2.37;;;1.80;;
78916;SDS011;68315;48.608;11.436;2023-07-16T11:41:02;2.65;;;2.10;;
78916;SDS011;68315;48.608;11.436;2023-07-16T11:43:28;2.53;;;2.10;;
78916;SDS011;68315;48.608;11.436;2023-07-16T11:45:53;3.10;;;2.10;;
78916;SDS011;68315;48.608;11.436;2023-07-16T11:48:18;2.70;;;1.80;;
78916;SDS011;68315;48.608;11.436;2023-07-16T11:50:44;5.40;;;2.23;;
78916;SDS011;68315;48.608;11.436;2023-07-16T11:53:10;2.33;;;2.13;;
78916;SDS011;68315;48.608;11.436;2023-07-16T11:55:36;2.40;;;1.80;;
78916;SDS011;68315;48.608;11.436;2023-07-16T11:58:01;2.05;;;1.75;;
78916;SDS011;68315;48.608;11.436;2023-07-16T12:00:27;3.60;;;2.03;;
78916;SDS011;68315;48.608;11.436;2023-07-16T12:02:53;2.47;;;2.10;;
78916;SDS011;68315;48.608;11.436;2023-07-16T12:05:19;2.15;;;1.95;;
78916;SDS011;68315;48.608;11.436;2023-07-16T12:07:44;1.80;;;1.70;;
78916;SDS011;68315;48.608;11.436;2023-07-16T12:10:10;3.00;;;2.20;;
78916;SDS011;68315;48.608;11.436;2023-07-16T12:12:35;2.50;;;2.30;;
78916;SDS011;68315;48.608;11.436;2023-07-16T12:15:04;3.53;;;2.50;;
78916;SDS011;68315;48.608;11.436;2023-07-16T12:17:30;2.90;;;2.42;;
78916;SDS011;68315;48.608;11.436;2023-07-16T12:19:55;2.30;;;2.10;;
78916;SDS011;68315;48.608;11.436;2023-07-16T12:22:20;2.27;;;2.03;;
78916;SDS011;68315;48.608;11.436;2023-07-16T12:24:47;2.20;;;1.77;;
78916;SDS011;68315;48.608;11.436;2023-07-16T12:27:13;2.17;;;1.90;;
78916;SDS011;68315;48.608;11.436;2023-07-16T12:29:39;2.28;;;2.05;;
78916;SDS011;68315;48.608;11.436;2023-07-16T12:32:04;3.40;;;2.40;;
78916;SDS011;68315;48.608;11.436;2023-07-16T12:34:30;2.67;;;2.45;;
78916;SDS011;68315;48.608;11.436;2023-07-16T12:36:56;2.50;;;2.30;;
78916;SDS011;68315;48.608;11.436;2023-07-16T12:39:21;2.55;;;2.35;;
78916;SDS011;68315;48.608;11.436;2023-07-16T12:41:46;2.75;;;2.42;;
78916;SDS011;68315;48.608;11.436;2023-07-16T12:44:12;2.35;;;2.10;;
78916;SDS011;68315;48.608;11.436;2023-07-16T12:46:37;2.58;;;2.22;;
78916;SDS011;68315;48.608;11.436;2023-07-16T12:49:02;2.20;;;2.00;;
78916;SDS011;68315;48.608;11.436;2023-07-16T12:51:28;2.30;;;2.10;;
78916;SDS011;68315;48.608;11.436;2023-07-16T12:53:53;2.30;;;2.10;;
78916;SDS011;68315;48.608;11.436;2023-07-16T12:56:18;3.17;;;2.27;;
78916;SDS011;68315;48.608;11.436;2023-07-16T12:58:44;2.93;;;1.80;;
78916;SDS011;68315;48.608;11.436;2023-07-16T13:01:09;2.60;;;2.08;;
78916;SDS011;68315;48.608;11.436;2023-07-16T13:03:34;2.83;;;2.10;;
78916;SDS011;68315;48.608;11.436;2023-07-16T17:17:20;1.63;;;1.48;;
78916;SDS011;68315;48.608;11.436;2023-07-16T17:19:57;1.58;;;1.48;;
78916;SDS011;68315;48.608;11.436;2023-07-16T17:25:09;1.70;;;1.40;;
78916;SDS011;68315;48.608;11.436;2023-07-16T17:27:45;1.88;;;1.70;;
78916;SDS011;68315;48.608;11.436;2023-07-16T17:30:12;2.33;;;1.38;;
78916;SDS011;68315;48.608;11.436;2023-07-16T17:32:43;2.00;;;1.50;;
78916;SDS011;68315;48.608;11.436;2023-07-16T17:35:09;1.45;;;1.35;;
78916;SDS011;68315;48.608;11.436;2023-07-16T17:37:34;2.38;;;1.70;;
78916;SDS011;68315;48.608;11.436;2023-07-16T17:40:00;3.50;;;1.75;;
78916;SDS011;68315;48.608;11.436;2023-07-16T17:42:25;1.40;;;1.30;;
78916;SDS011;68315;48.608;11.436;2023-07-16T17:44:57;2.67;;;1.77;;
78916;SDS011;68315;48.608;11.436;2023-07-16T17:47:22;1.50;;;1.38;;
78916;SDS011;68315;48.608;11.436;2023-07-16T17:49:47;1.60;;;1.50;;
78916;SDS011;68315;48.608;11.436;2023-07-16T17:52:16;1.70;;;1.40;;
78916;SDS011;68315;48.608;11.436;2023-07-16T17:54:42;1.65;;;1.40;;
78916;SDS011;68315;48.608;11.436;2023-07-16T17:57:08;1.30;;;1.20;;
78916;SDS011;68315;48.608;11.436;2023-07-16T17:59:34;2.00;;;1.50;;
78916;SDS011;68315;48.608;11.436;2023-07-16T18:01:59;4.13;;;1.60;;
78916;SDS011;68315;48.608;11.436;2023-07-16T18:04:25;2.20;;;1.63;;
78916;SDS011;68315;48.608;11.436;2023-07-16T18:06:51;1.42;;;1.33;;
78916;SDS011;68315;48.608;11.436;2023-07-16T18:09:16;1.58;;;1.48;;
78916;SDS011;68315;48.608;11.436;2023-07-16T18:11:44;1.40;;;1.30;;
78916;SDS011;68315;48.608;11.436;2023-07-16T18:14:10;1.85;;;1.40;;
78916;SDS011;68315;48.608;11.436;2023-07-16T18:16:36;1.67;;;1.30;;
78916;SDS011;68315;48.608;11.436;2023-07-16T18:19:02;1.88;;;1.23;;
78916;SDS011;68315;48.608;11.436;2023-07-16T18:21:27;1.65;;;1.55;;
78916;SDS011;68315;48.608;11.436;2023-07-16T18:23:55;2.90;;;1.63;;
78916;SDS011;68315;48.608;11.436;2023-07-16T18:26:21;2.70;;;1.40;;
78916;SDS011;68315;48.608;11.436;2023-07-16T18:28:46;1.60;;;1.50;;
78916;SDS011;68315;48.608;11.436;2023-07-16T18:31:12;1.58;;;1.48;;
78916;SDS011;68315;48.608;11.436;2023-07-16T18:33:37;1.77;;;1.20;;
78916;SDS011;68315;48.608;11.436;2023-07-16T18:36:03;1.73;;;1.60;;
78916;SDS011;68315;48.608;11.436;2023-07-16T18:38:28;2.10;;;1.73;;
78916;SDS011;68315;48.608;11.436;2023-07-16T18:40:54;1.40;;;1.30;;
78916;SDS011;68315;48.608;11.436;2023-07-16T18:43:19;1.63;;;1.52;;
78916;SDS011;68315;48.608;11.436;2023-07-16T18:45:45;1.92;;;1.50;;
78916;SDS011;68315;48.608;11.436;2023-07-16T18:48:10;1.67;;;1.50;;
78916;SDS011;68315;48.608;11.436;2023-07-16T18:50:36;1.77;;;1.33;;
78916;SDS011;68315;48.608;11.436;2023-07-16T18:53:01;1.48;;;1.33;;